Saffet Bey — TCUZ — position and weather

sailwx.info

Track history (hours):
 
Tides and Currents Weather Stations Pressure Air Temp Water Temp Dewpoint Dewpoint Depression Visibility Wind Speed Wind Dir Waves Ship Positions

Saffet Bey

Last reported at 2017-Feb-24 07:29 UTC. Time now 2017-Feb-25 18:55 UTC.
Position N 43°53' E 014°18'.

Length 164 m; draft 7.2 m.

Type: Ship (hazmat cat A). MMSI: 271000419.

Date/timePositionNaut miles runAvg speedWind from/ knotsBaromVisibWave heightAir tempDewpointWater temp
2017-Feb-24 07:29N 43°53' E 014°18'1314.5
2017-Feb-24 06:33N 44°04' E 014°07'1414.2
2017-Feb-24 05:33N 44°15' E 013°55'1414.2
2017-Feb-24 04:33N 44°27' E 013°44'1414.4
2017-Feb-24 03:33N 44°39' E 013°33'1414.4
2017-Feb-24 02:33N 44°51' E 013°23'1514.6
2017-Feb-24 01:33N 45°04' E 013°11'1514.7
2017-Feb-24 00:33N 45°17' E 013°04'1414.1
2017-Feb-23 23:33N 45°30' E 013°14'1514.5
2017-Feb-23 22:33N 45°37' E 013°32'10 9.4
2017-Feb-23 21:32N 45°38' E 013°46'0 0.0
2017-Feb-23 20:29N 45°38' E 013°46'0 0.0
2017-Feb-23 19:29N 45°38' E 013°46'0 0.0
2017-Feb-23 18:32N 45°38' E 013°46'0 0.0
2017-Feb-23 17:32N 45°38' E 013°46'0 0.0
2017-Feb-23 16:26N 45°38' E 013°46'0 0.0
2017-Feb-23 15:31N 45°38' E 013°46'0 0.0
2017-Feb-23 14:31N 45°38' E 013°46'0 0.0
2017-Feb-23 13:19N 45°38' E 013°46'0 0.0
2017-Feb-23 12:31N 45°38' E 013°46'0 0.0
2017-Feb-23 11:31N 45°38' E 013°46'0 0.0
2017-Feb-23 10:25N 45°38' E 013°46'0 0.0
2017-Feb-23 09:16N 45°38' E 013°46'0 0.0
2017-Feb-23 08:28N 45°38' E 013°46'0 0.0
2017-Feb-23 07:28N 45°38' E 013°46'0 0.0
2017-Feb-23 06:31N 45°38' E 013°46'0 0.0
2017-Feb-23 05:31N 45°38' E 013°46'0 0.0
2017-Feb-23 04:31N 45°38' E 013°46'0 0.0
2017-Feb-23 03:31N 45°38' E 013°46'0 0.0
2017-Feb-23 02:31N 45°38' E 013°46'0 0.0
2017-Feb-23 01:31N 45°38' E 013°46'0 0.0
2017-Feb-23 00:28N 45°38' E 013°46'0 0.0
2017-Feb-22 23:25N 45°38' E 013°46'0 0.0
2017-Feb-22 22:31N 45°38' E 013°46'0 0.0
2017-Feb-22 21:28N 45°38' E 013°46'0 0.0
2017-Feb-22 20:31N 45°38' E 013°46'0 0.2
2017-Feb-22 19:33N 45°38' E 013°45'8 7.9
2017-Feb-22 18:33N 45°36' E 013°35'1615.5
2017-Feb-22 17:32N 45°26' E 013°17'1413.9
2017-Feb-22 16:33N 45°13' E 013°17'1615.6
2017-Feb-22 15:34N 44°58' E 013°24'1615.5
2017-Feb-22 14:33N 44°44' E 013°35'1515.2
2017-Feb-22 13:33N 44°32' E 013°47'1515.2
2017-Feb-22 12:33N 44°19' E 013°59'1615.3
2017-Feb-22 11:31N 44°06' E 014°11'63412.8
2017-Feb-20 10:09N 37°15' E 024°48'814.2
2017-Feb-20 09:34N 37°20' E 024°56'1413.8
2017-Feb-20 08:34N 37°28' E 025°10'3 0.2
2017-Feb-19 10:33N 37°30' E 025°13'1615.9
2017-Feb-19 09:33N 37°20' E 024°58'66313.0
2017-Feb-17 06:24N 44°26' E 013°45'1314.8
2017-Feb-17 05:33N 44°37' E 013°36'1514.9
2017-Feb-17 04:33N 44°49' E 013°24'1514.8
2017-Feb-17 03:33N 45°02' E 013°13'1514.6
2017-Feb-17 02:33N 45°15' E 013°04'1413.7
2017-Feb-17 01:33N 45°28' E 013°11'1414.3
2017-Feb-17 00:33N 45°36' E 013°28'1211.6
2017-Feb-16 23:33N 45°38' E 013°44'1 1.0
2017-Feb-16 22:31N 45°38' E 013°46'0 0.0
2017-Feb-16 21:28N 45°38' E 013°46'0 0.0
2017-Feb-16 20:31N 45°38' E 013°46'0 0.0
2017-Feb-16 19:25N 45°38' E 013°46'0 0.0
2017-Feb-16 18:31N 45°38' E 013°46'0 0.0
2017-Feb-16 17:31N 45°38' E 013°46'0 0.0
2017-Feb-16 16:31N 45°38' E 013°46'0 0.0
2017-Feb-16 15:31N 45°38' E 013°46'0 0.0
2017-Feb-16 14:31N 45°38' E 013°46'0 0.0
2017-Feb-16 13:31N 45°38' E 013°46'0 0.0
2017-Feb-16 12:28N 45°38' E 013°46'0 0.0
2017-Feb-16 11:31N 45°38' E 013°46'0 0.0
2017-Feb-16 10:31N 45°38' E 013°46'0 0.0
2017-Feb-16 09:28N 45°38' E 013°46'0 0.0
2017-Feb-16 08:31N 45°38' E 013°46'0 0.0
2017-Feb-16 07:31N 45°38' E 013°46'0 0.1
2017-Feb-16 06:34N 45°38' E 013°46'7 7.3
2017-Feb-16 05:33N 45°37' E 013°35'1515.3
2017-Feb-16 04:33N 45°28' E 013°17'1413.6
2017-Feb-16 03:33N 45°15' E 013°14'1515.2
2017-Feb-16 02:33N 45°00' E 013°21'1514.8
2017-Feb-16 01:33N 44°48' E 013°33'1515.0
2017-Feb-16 00:33N 44°35' E 013°44'1514.9
2017-Feb-15 23:33N 44°23' E 013°56'1814.7
2017-Feb-15 22:19N 44°08' E 014°10'  
Track history (hours):
 
Tides and Currents Weather Stations Pressure Air Temp Water Temp Dewpoint Dewpoint Depression Visibility Wind Speed Wind Dir Waves Ship Positions

Saffet Bey

Last reported at 2017-Feb-24 07:29 UTC. Time now 2017-Feb-25 18:55 UTC.
Position N 43°53' E 014°18'.

Length 164 m; draft 7.2 m.

Type: Ship (hazmat cat A). MMSI: 271000419.

Date/timePositionNaut miles runAvg speedWind from/ knotsBaromVisibWave heightAir tempDewpointWater temp
2017-Feb-24 07:29N 43°53' E 014°18'1314.5
2017-Feb-24 06:33N 44°04' E 014°07'1414.2
2017-Feb-24 05:33N 44°15' E 013°55'1414.2
2017-Feb-24 04:33N 44°27' E 013°44'1414.4
2017-Feb-24 03:33N 44°39' E 013°33'1414.4
2017-Feb-24 02:33N 44°51' E 013°23'1514.6
2017-Feb-24 01:33N 45°04' E 013°11'1514.7
2017-Feb-24 00:33N 45°17' E 013°04'1414.1
2017-Feb-23 23:33N 45°30' E 013°14'1514.5
2017-Feb-23 22:33N 45°37' E 013°32'10 9.4
2017-Feb-23 21:32N 45°38' E 013°46'0 0.0
2017-Feb-23 20:29N 45°38' E 013°46'0 0.0
2017-Feb-23 19:29N 45°38' E 013°46'0 0.0
2017-Feb-23 18:32N 45°38' E 013°46'0 0.0
2017-Feb-23 17:32N 45°38' E 013°46'0 0.0
2017-Feb-23 16:26N 45°38' E 013°46'0 0.0
2017-Feb-23 15:31N 45°38' E 013°46'0 0.0
2017-Feb-23 14:31N 45°38' E 013°46'0 0.0
2017-Feb-23 13:19N 45°38' E 013°46'0 0.0
2017-Feb-23 12:31N 45°38' E 013°46'0 0.0
2017-Feb-23 11:31N 45°38' E 013°46'0 0.0
2017-Feb-23 10:25N 45°38' E 013°46'0 0.0
2017-Feb-23 09:16N 45°38' E 013°46'0 0.0
2017-Feb-23 08:28N 45°38' E 013°46'0 0.0
2017-Feb-23 07:28N 45°38' E 013°46'0 0.0
2017-Feb-23 06:31N 45°38' E 013°46'0 0.0
2017-Feb-23 05:31N 45°38' E 013°46'0 0.0
2017-Feb-23 04:31N 45°38' E 013°46'0 0.0
2017-Feb-23 03:31N 45°38' E 013°46'0 0.0
2017-Feb-23 02:31N 45°38' E 013°46'0 0.0
2017-Feb-23 01:31N 45°38' E 013°46'0 0.0
2017-Feb-23 00:28N 45°38' E 013°46'0 0.0
2017-Feb-22 23:25N 45°38' E 013°46'0 0.0
2017-Feb-22 22:31N 45°38' E 013°46'0 0.0
2017-Feb-22 21:28N 45°38' E 013°46'0 0.0
2017-Feb-22 20:31N 45°38' E 013°46'0 0.2
2017-Feb-22 19:33N 45°38' E 013°45'8 7.9
2017-Feb-22 18:33N 45°36' E 013°35'1615.5
2017-Feb-22 17:32N 45°26' E 013°17'1413.9
2017-Feb-22 16:33N 45°13' E 013°17'1615.6
2017-Feb-22 15:34N 44°58' E 013°24'1615.5
2017-Feb-22 14:33N 44°44' E 013°35'1515.2
2017-Feb-22 13:33N 44°32' E 013°47'1515.2
2017-Feb-22 12:33N 44°19' E 013°59'1615.3
2017-Feb-22 11:31N 44°06' E 014°11'63412.8
2017-Feb-20 10:09N 37°15' E 024°48'814.2
2017-Feb-20 09:34N 37°20' E 024°56'1413.8
2017-Feb-20 08:34N 37°28' E 025°10'3 0.2
2017-Feb-19 10:33N 37°30' E 025°13'1615.9
2017-Feb-19 09:33N 37°20' E 024°58'66313.0
2017-Feb-17 06:24N 44°26' E 013°45'1314.8
2017-Feb-17 05:33N 44°37' E 013°36'1514.9
2017-Feb-17 04:33N 44°49' E 013°24'1514.8
2017-Feb-17 03:33N 45°02' E 013°13'1514.6
2017-Feb-17 02:33N 45°15' E 013°04'1413.7
2017-Feb-17 01:33N 45°28' E 013°11'1414.3
2017-Feb-17 00:33N 45°36' E 013°28'1211.6
2017-Feb-16 23:33N 45°38' E 013°44'1 1.0
2017-Feb-16 22:31N 45°38' E 013°46'0 0.0
2017-Feb-16 21:28N 45°38' E 013°46'0 0.0
2017-Feb-16 20:31N 45°38' E 013°46'0 0.0
2017-Feb-16 19:25N 45°38' E 013°46'0 0.0
2017-Feb-16 18:31N 45°38' E 013°46'0 0.0
2017-Feb-16 17:31N 45°38' E 013°46'0 0.0
2017-Feb-16 16:31N 45°38' E 013°46'0 0.0
2017-Feb-16 15:31N 45°38' E 013°46'0 0.0
2017-Feb-16 14:31N 45°38' E 013°46'0 0.0
2017-Feb-16 13:31N 45°38' E 013°46'0 0.0
2017-Feb-16 12:28N 45°38' E 013°46'0 0.0
2017-Feb-16 11:31N 45°38' E 013°46'0 0.0
2017-Feb-16 10:31N 45°38' E 013°46'0 0.0
2017-Feb-16 09:28N 45°38' E 013°46'0 0.0
2017-Feb-16 08:31N 45°38' E 013°46'0 0.0
2017-Feb-16 07:31N 45°38' E 013°46'0 0.1
2017-Feb-16 06:34N 45°38' E 013°46'7 7.3
2017-Feb-16 05:33N 45°37' E 013°35'1515.3
2017-Feb-16 04:33N 45°28' E 013°17'1413.6
2017-Feb-16 03:33N 45°15' E 013°14'1515.2
2017-Feb-16 02:33N 45°00' E 013°21'1514.8
2017-Feb-16 01:33N 44°48' E 013°33'1515.0
2017-Feb-16 00:33N 44°35' E 013°44'1514.9
2017-Feb-15 23:33N 44°23' E 013°56'1814.7
2017-Feb-15 22:19N 44°08' E 014°10'  

Dump ship's entire track history